»·PEaware :: N250AJ KSEZ-KPVU

N250AJ :: KSEZ-KPVU

FLIGHT INFORMATION

Flight Status: Arrived
Operator: Privately registered:
United States
More flights under this callsign
Pilot: Andrew J. (13363)
Aircraft: BEECH AIRCRAFT SUPER KING AIR 350
(B350)
More flights by this aircraft type
Origin: KSEZ Sedona
United States
Destination: KPVU Provo Mun
United States
More flights between these airports :: More routes between these airports
Route: DRK J11 FFU
File this flight plan on PilotEdge
Remarks:
Altitude:
(Current/Filed)
30,000ft
Speed:
(Current/Filed)
330kts
Departed: 22-May-19 01:09 PM
Arrived: 22-May-19 02:23 PM
Distance/Time
Traveled:
322nm/1:14
Distance/Time
To Go:
Arrived

Flight Plot

Page will automatically refresh every two minutes.

Flight plan parsing failed; only flown route is shown


Map Options




Map Legend


Flown Route
Filed Route
Departure Airport
Arrival Airport
Navaid (VOR, NDB)
Fix

Horizontal Profiles

Position Reports

Time Latitude Longitude Heading Altitude Ground
Speed
22-May-19 12:43 34.848664 -111.792006 44 4758ft 0kts
22-May-19 12:44 34.848664 -111.792006 44 4758ft 0kts
22-May-19 12:45 34.848664 -111.792006 44 4758ft 0kts
22-May-19 12:46 34.848664 -111.792006 44 4758ft 0kts
22-May-19 12:47 34.848664 -111.792006 44 4758ft 0kts
22-May-19 12:48 34.848664 -111.792006 44 4758ft 0kts
22-May-19 12:49 34.848664 -111.792006 44 4758ft 0kts
22-May-19 12:50 34.848664 -111.792006 44 4758ft 0kts
22-May-19 12:51 34.848664 -111.792006 44 4758ft 0kts
22-May-19 12:52 34.848664 -111.792006 44 4758ft 0kts
22-May-19 12:53 34.848664 -111.792006 44 4758ft 0kts
22-May-19 12:54 34.848664 -111.792006 44 4758ft 0kts
22-May-19 12:55 34.849145 -111.791170 140 4758ft 0kts
22-May-19 12:56 34.848706 -111.790675 137 4758ft 22kts
22-May-19 12:57 34.850422 -111.787393 43 4758ft 15kts
22-May-19 12:58 34.853580 -111.783103 127 4758ft 1kts
22-May-19 12:59 34.853578 -111.783101 126 4758ft 0kts
22-May-19 13:00 34.853578 -111.783101 126 4758ft 0kts
22-May-19 13:01 34.853578 -111.783101 126 4758ft 0kts
22-May-19 13:02 34.853578 -111.783101 126 4758ft 0kts
22-May-19 13:03 34.853578 -111.783101 126 4758ft 0kts
22-May-19 13:04 34.853578 -111.783101 126 4758ft 0kts
22-May-19 13:05 34.853578 -111.783101 126 4758ft 0kts
22-May-19 13:06 34.853578 -111.783101 126 4758ft 0kts
22-May-19 13:07 34.853279 -111.782640 205 4758ft 7kts
22-May-19 13:08 34.833763 -111.805545 207 5570ft 146kts
22-May-19 13:09 34.816367 -111.836116 268 7992ft 147kts
22-May-19 13:10 34.811459 -111.884573 251 10205ft 143kts
22-May-19 13:11 34.803267 -111.930768 249 12287ft 138kts
22-May-19 13:12 34.798329 -111.976368 275 14388ft 150kts
22-May-19 13:13 34.811983 -112.023754 276 16555ft 152kts
22-May-19 13:14 34.826181 -112.070916 273 18912ft 148kts
22-May-19 13:15 34.840057 -112.117115 272 21099ft 146kts
22-May-19 13:16 34.869405 -112.154863 316 23062ft 200kts
22-May-19 13:17 34.920478 -112.181456 312 24850ft 202kts
22-May-19 13:18 34.972435 -112.208915 311 26509ft 210kts
22-May-19 13:19 35.026080 -112.237249 310 28714ft 211kts
22-May-19 13:20 35.081800 -112.266897 312 29850ft 242kts
22-May-19 13:21 35.147242 -112.301549 314 29825ft 268kts
22-May-19 13:22 35.217949 -112.339103 315 29822ft 285kts
22-May-19 13:23 35.291953 -112.378493 316 29817ft 297kts
22-May-19 13:24 35.369122 -112.419667 316 29812ft 310kts
22-May-19 13:25 35.459505 -112.436858 347 29809ft 359kts
22-May-19 13:26 35.559225 -112.431024 346 29821ft 359kts
22-May-19 13:27 35.659156 -112.425228 346 29819ft 360kts
22-May-19 13:28 35.759141 -112.419390 346 29824ft 361kts
22-May-19 13:29 35.859725 -112.413512 346 29825ft 363kts
22-May-19 13:30 35.961115 -112.407570 347 29816ft 364kts
22-May-19 13:31 36.062561 -112.401610 347 29812ft 366kts
22-May-19 13:32 36.163981 -112.395628 347 29795ft 365kts
22-May-19 13:33 36.265224 -112.389646 347 29798ft 363kts
22-May-19 13:34 36.366007 -112.383685 347 29800ft 363kts
22-May-19 13:35 36.466674 -112.377700 347 29801ft 362kts
22-May-19 13:36 36.567483 -112.371703 348 29804ft 362kts
22-May-19 13:37 36.668108 -112.365695 348 29806ft 361kts
22-May-19 13:38 36.764752 -112.359911 348 29808ft 359kts
22-May-19 13:39 36.864648 -112.353920 349 29820ft 359kts
22-May-19 13:40 36.964380 -112.347927 349 29818ft 359kts
22-May-19 13:41 37.064030 -112.341912 350 29823ft 360kts
22-May-19 13:42 37.163006 -112.335939 350 29800ft 359kts
22-May-19 13:43 37.262701 -112.329898 350 29819ft 357kts
22-May-19 13:44 37.361827 -112.323868 350 29822ft 357kts
22-May-19 13:45 37.460975 -112.317846 351 29824ft 357kts
22-May-19 13:46 37.560665 -112.311765 351 29823ft 360kts
22-May-19 13:47 37.661003 -112.305625 351 29805ft 363kts
22-May-19 13:48 37.762747 -112.293912 355 29852ft 369kts
22-May-19 13:49 37.865334 -112.279952 355 29814ft 370kts
22-May-19 13:50 37.967548 -112.266021 355 29795ft 369kts
22-May-19 13:51 38.069420 -112.252093 355 29794ft 368kts
22-May-19 13:52 38.168793 -112.238470 356 29776ft 365kts
22-May-19 13:53 38.269149 -112.224673 356 29790ft 362kts
22-May-19 13:54 38.369185 -112.210891 357 29784ft 360kts
22-May-19 13:55 38.468582 -112.197160 358 29780ft 358kts
22-May-19 13:56 38.567132 -112.183499 358 29799ft 355kts
22-May-19 13:57 38.664756 -112.169923 0 29843ft 351kts
22-May-19 13:58 38.761365 -112.156452 1 29915ft 347kts
22-May-19 13:59 38.856992 -112.143094 2 29919ft 346kts
22-May-19 14:00 38.955898 -112.129247 5 29003ft 366kts
22-May-19 14:01 39.054541 -112.115361 6 28094ft 372kts
22-May-19 14:02 39.153505 -112.101399 8 27153ft 368kts
22-May-19 14:03 39.254426 -112.087123 9 26084ft 361kts
22-May-19 14:04 39.352269 -112.073257 10 24623ft 348kts
22-May-19 14:05 39.446948 -112.059755 10 22920ft 339kts
22-May-19 14:06 39.540393 -112.046415 10 20751ft 337kts
22-May-19 14:07 39.634008 -112.033031 9 18053ft 339kts
22-May-19 14:08 39.726450 -112.019791 9 15332ft 325kts
22-May-19 14:09 39.813725 -112.007282 8 12313ft 309kts
22-May-19 14:10 39.892817 -111.995903 7 10557ft 267kts
22-May-19 14:11 39.959082 -111.986362 7 9966ft 206kts
22-May-19 14:12 40.014219 -111.978398 7 9997ft 201kts
22-May-19 14:13 40.067615 -111.966129 38 9956ft 206kts
22-May-19 14:14 40.113627 -111.914059 40 8994ft 229kts
22-May-19 14:15 40.160106 -111.860311 40 8475ft 225kts
22-May-19 14:16 40.209605 -111.809426 11 7273ft 222kts
22-May-19 14:18 40.267506 -111.798590 358 5963ft 202kts
22-May-19 14:19 40.296251 -111.839381 234 5469ft 188kts
22-May-19 14:20 40.269828 -111.809454 98 5196ft 190kts
22-May-19 14:21 40.245229 -111.756181 110 4937ft 166kts
22-May-19 14:22 40.221450 -111.724676 144 4493ft 70kts
22-May-19 14:23 40.219071 -111.720417 146 4493ft 0kts
22-May-19 14:24 40.218115 -111.719231 95 4493ft 1kts
22-May-19 14:25 40.217817 -111.718743 247 4493ft 0kts
22-May-19 14:26 40.217817 -111.718743 247 4493ft 0kts
22-May-19 14:27 40.217817 -111.718743 247 4493ft 0kts
22-May-19 14:28 40.217817 -111.718743 247 4493ft 0kts
22-May-19 14:29 40.217817 -111.718743 247 4493ft 0kts
22-May-19 14:30 40.217817 -111.718743 247 4493ft 0kts
22-May-19 14:31 40.217817 -111.718743 247 4493ft 0kts
22-May-19 14:32 40.217817 -111.718743 247 4493ft 0kts
22-May-19 14:33 40.217817 -111.718743 247 4493ft 0kts
22-May-19 14:34 40.217817 -111.718743 247 4493ft 0kts
22-May-19 14:35 40.217817 -111.718743 247 4493ft 0kts
22-May-19 14:36 40.217817 -111.718743 247 4493ft 0kts

Navigation Log

Ident Type
Flight plan parsing failed, navigation log unavailable